Time;durP1;ratioP1;P1;durP2;ratioP2;P2;SDS_P1;SDS_P2;PMS_P1;PMS_P2;Temp;Humidity;BMP_temperature;BMP_pressure;BME280_temperature;BME280_humidity;BME280_pressure;Samples;Min_cycle;Max_cycle;Signal;HPM_P1;HPM_P2
2021/05/29 00:00:10;;;;;;;2.78;2.15;;;13.20;81.30;;;;;;6201493;28;20081;-75
2021/05/29 00:03:11;;;;;;;2.83;2.00;;;13.20;81.70;;;;;;6199530;28;20054;-75
2021/05/29 00:06:13;;;;;;;6.18;2.92;;;13.20;82.00;;;;;;6199804;28;20056;-75
2021/05/29 00:09:14;;;;;;;2.58;2.38;;;13.10;82.50;;;;;;6198688;28;20060;-75
2021/05/29 00:12:15;;;;;;;3.00;2.60;;;13.10;82.70;;;;;;6198930;28;20125;-76
2021/05/29 00:15:18;;;;;;;2.72;2.53;;;13.10;83.30;;;;;;6198906;28;20472;-75
2021/05/29 00:18:19;;;;;;;3.38;2.33;;;13.00;83.80;;;;;;6199429;28;20050;-74
2021/05/29 00:21:21;;;;;;;3.00;2.65;;;13.00;84.10;;;;;;6198667;28;20086;-76
2021/05/29 00:24:22;;;;;;;6.20;2.65;;;13.00;84.40;;;;;;6198634;28;20042;-75
2021/05/29 00:27:23;;;;;;;2.70;2.42;;;12.90;84.90;;;;;;6198881;28;20043;-75
2021/05/29 00:30:26;;;;;;;4.43;4.03;;;12.90;85.00;;;;;;6198845;28;20165;-75
2021/05/29 00:33:27;;;;;;;3.28;2.33;;;12.90;85.00;;;;;;6198608;28;20078;-75
2021/05/29 00:36:28;;;;;;;3.22;2.70;;;12.90;86.00;;;;;;6198206;28;20469;-75
2021/05/29 00:39:30;;;;;;;3.00;2.70;;;12.90;86.10;;;;;;6198422;28;20077;-75
2021/05/29 00:42:31;;;;;;;5.25;2.90;;;12.90;86.10;;;;;;6198712;28;20196;-75
2021/05/29 00:45:34;;;;;;;4.75;3.50;;;12.80;86.10;;;;;;6198302;28;20042;-75
2021/05/29 00:48:35;;;;;;;2.95;2.72;;;12.80;86.30;;;;;;6197901;28;20535;-76
2021/05/29 00:51:37;;;;;;;3.60;3.28;;;12.80;86.70;;;;;;6198127;28;20068;-75
2021/05/29 00:54:39;;;;;;;2.83;2.42;;;12.80;86.30;;;;;;6198589;28;20046;-75
2021/05/29 00:57:41;;;;;;;5.07;2.88;;;12.80;86.50;;;;;;6198529;28;20571;-75
2021/05/29 01:00:44;;;;;;;4.03;3.00;;;12.80;84.50;;;;;;6202359;28;20456;-75
2021/05/29 01:03:45;;;;;;;7.53;3.28;;;12.90;84.80;;;;;;6198062;28;20527;-75
2021/05/29 01:06:46;;;;;;;3.88;3.58;;;12.90;84.20;;;;;;6198795;28;20088;-75
2021/05/29 01:09:48;;;;;;;6.13;2.63;;;12.90;83.40;;;;;;6197322;28;20526;-75
2021/05/29 01:12:50;;;;;;;2.40;2.20;;;12.90;82.80;;;;;;6197746;28;20082;-75
2021/05/29 01:15:55;;;;;;;3.42;2.90;;;12.90;82.40;;;;;;6197911;28;20169;-75
2021/05/29 01:18:56;;;;;;;3.15;2.30;;;12.90;81.90;;;;;;6197180;28;20412;-76
2021/05/29 01:21:59;;;;;;;2.85;2.55;;;12.80;81.80;;;;;;6198540;28;20129;-75
2021/05/29 01:25:03;;;;;;;2.75;2.47;;;12.90;81.60;;;;;;6197498;28;20055;-75
2021/05/29 01:28:07;;;;;;;4.47;2.35;;;12.90;82.10;;;;;;6198383;28;20448;-75
2021/05/29 01:31:09;;;;;;;5.22;2.30;;;12.90;82.30;;;;;;6198178;28;20061;-75
2021/05/29 01:34:12;;;;;;;4.05;2.63;;;12.90;81.60;;;;;;6198518;28;20051;-75
2021/05/29 01:37:14;;;;;;;4.10;2.40;;;12.90;81.80;;;;;;6198541;28;20074;-75
2021/05/29 01:40:17;;;;;;;3.03;2.65;;;12.90;81.30;;;;;;6199372;28;20130;-75
2021/05/29 01:43:19;;;;;;;3.22;2.47;;;12.90;81.80;;;;;;6200943;28;20126;-75
2021/05/29 01:46:22;;;;;;;2.92;2.20;;;12.90;82.40;;;;;;6201637;28;20051;-75
2021/05/29 01:49:23;;;;;;;2.50;2.30;;;12.90;83.60;;;;;;6201141;28;20188;-75
2021/05/29 01:52:50;;;;;;;2.20;2.00;;;12.90;84.50;;;;;;6209170;28;20042;-75
2021/05/29 01:55:52;;;;;;;3.10;2.80;;;12.80;84.90;;;;;;6197120;28;20100;-75
2021/05/29 01:58:53;;;;;;;2.53;2.33;;;12.80;84.10;;;;;;6202247;28;20099;-75
2021/05/29 02:01:55;;;;;;;3.55;3.00;;;12.70;83.80;;;;;;6201505;28;20085;-75
2021/05/29 02:04:56;;;;;;;4.10;2.85;;;12.60;83.70;;;;;;6197400;28;20054;-76
2021/05/29 02:07:59;;;;;;;3.75;2.45;;;12.60;84.30;;;;;;6197038;28;20540;-75
2021/05/29 02:11:01;;;;;;;4.25;3.85;;;12.50;84.20;;;;;;6197110;28;20060;-75
2021/05/29 02:14:03;;;;;;;5.40;3.00;;;12.50;84.50;;;;;;6197243;28;20057;-75
2021/05/29 02:17:04;;;;;;;2.63;2.42;;;12.50;84.40;;;;;;6197129;28;20126;-75
2021/05/29 02:20:08;;;;;;;2.88;2.63;;;12.40;84.60;;;;;;6196537;28;20527;-75
2021/05/29 02:23:12;;;;;;;3.08;2.55;;;12.40;85.00;;;;;;6196696;28;20423;-75
2021/05/29 02:26:17;;;;;;;3.17;2.50;;;12.30;85.30;;;;;;6197559;28;20114;-75
2021/05/29 02:29:18;;;;;;;3.45;3.15;;;12.30;85.40;;;;;;6196388;28;20050;-75
2021/05/29 02:32:19;;;;;;;2.88;2.53;;;12.20;86.20;;;;;;6201366;28;20081;-75
2021/05/29 02:35:21;;;;;;;4.20;2.90;;;12.10;86.60;;;;;;6200964;28;20413;-75
2021/05/29 02:38:22;;;;;;;4.22;3.30;;;12.00;87.10;;;;;;6201717;28;20061;-75
2021/05/29 02:41:24;;;;;;;4.20;3.80;;;12.00;87.90;;;;;;6200701;28;20074;-75
2021/05/29 02:44:26;;;;;;;6.55;3.35;;;11.90;88.30;;;;;;6201720;28;20101;-75
2021/05/29 02:47:27;;;;;;;6.25;3.05;;;11.80;88.40;;;;;;6201106;28;20144;-75
2021/05/29 02:50:28;;;;;;;5.13;3.63;;;11.80;88.60;;;;;;6201395;28;20133;-75
2021/05/29 02:53:29;;;;;;;3.67;3.25;;;11.80;88.40;;;;;;6201112;28;20098;-74
2021/05/29 02:56:32;;;;;;;4.57;3.35;;;11.70;88.30;;;;;;6201010;28;20105;-75
2021/05/29 02:59:33;;;;;;;5.53;4.00;;;11.70;88.60;;;;;;6203068;28;20069;-75
2021/05/29 03:02:34;;;;;;;4.03;3.42;;;11.70;89.00;;;;;;6219339;28;20700;-75
2021/05/29 03:05:37;;;;;;;3.15;2.80;;;11.60;89.30;;;;;;6225298;28;20077;-75
2021/05/29 03:08:39;;;;;;;5.22;4.50;;;11.60;90.00;;;;;;6224793;28;20124;-75
2021/05/29 03:11:43;;;;;;;3.63;3.17;;;11.60;90.10;;;;;;6225153;28;20480;-75
2021/05/29 03:14:44;;;;;;;3.75;3.40;;;11.50;90.20;;;;;;6225240;28;20135;-75
2021/05/29 03:17:46;;;;;;;2.97;2.78;;;11.50;90.60;;;;;;6224991;28;20049;-76
2021/05/29 03:20:47;;;;;;;4.75;3.85;;;11.40;90.70;;;;;;6225271;28;20078;-75
2021/05/29 03:23:48;;;;;;;4.90;3.47;;;11.40;90.90;;;;;;6224454;28;20074;-75
2021/05/29 03:26:50;;;;;;;3.70;3.40;;;11.40;90.90;;;;;;6225008;28;20089;-74
2021/05/29 03:29:53;;;;;;;3.45;3.13;;;11.40;90.80;;;;;;6224534;28;20085;-75
2021/05/29 03:32:55;;;;;;;4.55;3.55;;;11.40;91.00;;;;;;6224279;28;20050;-76
2021/05/29 03:35:57;;;;;;;5.70;4.35;;;11.40;91.10;;;;;;6224280;28;20054;-75
2021/05/29 03:38:58;;;;;;;5.80;3.75;;;11.40;90.90;;;;;;6224515;28;20144;-76
2021/05/29 03:42:00;;;;;;;3.88;3.58;;;11.40;91.00;;;;;;6224756;28;20060;-75
2021/05/29 03:45:02;;;;;;;4.13;3.83;;;11.40;91.10;;;;;;6224560;28;20124;-75
2021/05/29 03:48:04;;;;;;;4.82;4.43;;;11.30;91.20;;;;;;6224912;28;20060;-75
2021/05/29 03:51:06;;;;;;;7.32;4.57;;;11.30;91.40;;;;;;6224778;28;20125;-75
2021/05/29 03:54:07;;;;;;;4.15;3.75;;;11.40;91.50;;;;;;6225178;28;20124;-75
2021/05/29 03:57:09;;;;;;;10.25;3.97;;;11.40;91.50;;;;;;6235419;28;20089;-75
2021/05/29 04:00:13;;;;;;;5.72;4.50;;;11.40;91.60;;;;;;6256554;28;20058;-76
2021/05/29 04:03:15;;;;;;;5.22;4.40;;;11.50;91.60;;;;;;6256307;28;20037;-75
2021/05/29 04:06:16;;;;;;;3.97;3.63;;;11.50;91.60;;;;;;6256338;28;20037;-75
2021/05/29 04:09:17;;;;;;;5.90;4.10;;;11.50;91.70;;;;;;6255368;28;20064;-75
2021/05/29 04:12:19;;;;;;;6.22;3.58;;;11.60;91.90;;;;;;6255783;28;20053;-75
2021/05/29 04:15:21;;;;;;;4.55;4.03;;;11.60;92.00;;;;;;6255671;28;20030;-76
2021/05/29 04:18:23;;;;;;;7.50;3.20;;;11.70;92.00;;;;;;6256166;28;20109;-76
2021/05/29 04:21:24;;;;;;;3.90;3.47;;;11.70;91.90;;;;;;6254505;28;20041;-76
2021/05/29 04:24:25;;;;;;;4.00;3.10;;;11.80;91.70;;;;;;6254648;28;20034;-76
2021/05/29 04:27:28;;;;;;;3.35;3.05;;;11.80;91.50;;;;;;6244906;28;20081;-75
2021/05/29 04:30:30;;;;;;;3.60;3.30;;;11.90;91.20;;;;;;6224404;28;20488;-74
2021/05/29 04:33:32;;;;;;;3.53;3.22;;;12.00;91.10;;;;;;6223649;28;20069;-75
2021/05/29 04:36:33;;;;;;;4.95;3.65;;;12.10;90.90;;;;;;6224151;28;20188;-74
2021/05/29 04:39:35;;;;;;;5.18;3.63;;;12.30;90.60;;;;;;6222874;28;20580;-75
2021/05/29 04:42:37;;;;;;;4.85;4.15;;;12.30;90.30;;;;;;6223414;28;20506;-75
2021/05/29 04:45:40;;;;;;;4.13;3.72;;;12.40;90.30;;;;;;6222897;28;20049;-75
2021/05/29 04:48:42;;;;;;;3.90;3.42;;;12.60;90.00;;;;;;6222422;28;20046;-75
2021/05/29 04:51:43;;;;;;;4.10;2.72;;;12.70;89.30;;;;;;6223503;28;20046;-75
2021/05/29 04:54:45;;;;;;;9.23;3.85;;;12.80;88.60;;;;;;6222291;28;20136;-75
2021/05/29 04:57:47;;;;;;;3.22;2.90;;;13.00;87.30;;;;;;6222891;28;20077;-75
2021/05/29 05:00:48;;;;;;;3.13;2.90;;;13.10;86.40;;;;;;6222284;28;20133;-76
2021/05/29 05:03:49;;;;;;;3.20;2.88;;;13.20;86.00;;;;;;6210456;28;20077;-75
2021/05/29 05:06:51;;;;;;;3.42;2.67;;;13.40;85.30;;;;;;6222740;28;20133;-75
2021/05/29 05:09:52;;;;;;;4.07;2.88;;;13.60;83.90;;;;;;6222604;28;20046;-76
2021/05/29 05:12:54;;;;;;;3.47;2.20;;;13.80;83.10;;;;;;6222279;28;20523;-75
2021/05/29 05:15:56;;;;;;;4.20;2.15;;;14.00;80.70;;;;;;6221788;28;20045;-75
2021/05/29 05:18:57;;;;;;;3.22;2.88;;;14.60;79.30;;;;;;6221940;28;20464;-75
2021/05/29 05:21:58;;;;;;;6.35;2.00;;;14.90;76.90;;;;;;6222380;28;20057;-75
2021/05/29 05:24:59;;;;;;;3.55;2.13;;;14.70;77.50;;;;;;6222173;28;20089;-75
2021/05/29 05:28:02;;;;;;;3.28;2.97;;;14.70;77.10;;;;;;6221969;28;20085;-75
2021/05/29 05:31:05;;;;;;;2.53;2.03;;;14.70;76.70;;;;;;6222038;28;20140;-75
2021/05/29 05:34:09;;;;;;;4.32;2.85;;;14.70;76.30;;;;;;6222392;28;20058;-76
2021/05/29 05:37:10;;;;;;;2.65;2.20;;;14.60;75.90;;;;;;6222586;28;20128;-76
2021/05/29 05:40:13;;;;;;;4.82;2.00;;;14.60;76.10;;;;;;6221567;28;20050;-76
2021/05/29 05:43:16;;;;;;;3.67;2.50;;;14.70;74.60;;;;;;6222177;28;20503;-75
2021/05/29 05:46:17;;;;;;;3.67;2.17;;;14.70;74.20;;;;;;6222969;28;20050;-75
2021/05/29 05:49:18;;;;;;;3.63;2.17;;;14.80;74.90;;;;;;6221858;28;20519;-75
2021/05/29 05:52:20;;;;;;;2.38;2.10;;;15.00;73.60;;;;;;6223448;28;20069;-76
2021/05/29 05:55:21;;;;;;;3.13;2.50;;;15.30;73.20;;;;;;6227379;28;20053;-75
2021/05/29 05:58:23;;;;;;;3.25;2.72;;;15.40;71.50;;;;;;6222391;28;20087;-76
2021/05/29 06:01:26;;;;;;;3.35;2.38;;;16.10;69.80;;;;;;6221233;28;20052;-76
2021/05/29 06:04:28;;;;;;;3.78;3.08;;;17.10;67.00;;;;;;6204310;28;22155;-75
2021/05/29 06:07:29;;;;;;;4.50;2.38;;;17.90;63.10;;;;;;6216103;28;20129;-76
2021/05/29 06:10:30;;;;;;;5.80;2.20;;;18.50;61.90;;;;;;6208912;28;20054;-76
2021/05/29 06:20:11;;;;;;;5.22;2.13;;;19.90;57.60;;;;;;6201125;28;20046;-76
2021/05/29 06:23:12;;;;;;;5.07;1.48;;;20.40;56.50;;;;;;6218097;28;20099;-75
2021/05/29 06:26:14;;;;;;;1.60;1.40;;;20.60;54.80;;;;;;6225959;28;20050;-75
2021/05/29 06:29:16;;;;;;;3.72;2.30;;;20.70;54.30;;;;;;6225530;28;20084;-75
2021/05/29 06:32:17;;;;;;;4.90;2.33;;;20.50;52.80;;;;;;6225322;28;20136;-75
2021/05/29 06:35:19;;;;;;;3.75;1.92;;;20.20;54.30;;;;;;6225490;28;20048;-75
2021/05/29 06:38:20;;;;;;;5.63;2.08;;;20.30;54.00;;;;;;6225025;28;20136;-76
2021/05/29 06:41:23;;;;;;;2.28;1.98;;;20.40;54.10;;;;;;6200800;28;20599;-75
2021/05/29 06:44:25;;;;;;;3.42;2.28;;;20.50;52.80;;;;;;6201020;28;20423;-75
2021/05/29 06:47:26;;;;;;;2.47;2.28;;;20.50;53.60;;;;;;6200903;28;20046;-75
2021/05/29 06:50:28;;;;;;;1.80;1.52;;;20.40;53.30;;;;;;6201111;28;20447;-75
2021/05/29 06:53:31;;;;;;;2.97;2.45;;;19.90;55.60;;;;;;6200604;28;20047;-75
2021/05/29 06:59:52;;;;;;;2.63;1.98;;;19.90;55.20;;;;;;6200463;28;20060;-76
2021/05/29 07:02:53;;;;;;;1.95;1.83;;;20.00;54.30;;;;;;6200838;28;20078;-75
2021/05/29 07:05:55;;;;;;;2.33;1.65;;;20.00;55.40;;;;;;6221028;28;20135;-75
2021/05/29 07:08:57;;;;;;;2.42;1.33;;;19.90;55.10;;;;;;6224652;28;20042;-75
2021/05/29 07:11:59;;;;;;;2.80;1.75;;;19.90;55.10;;;;;;6224703;28;20471;-74
2021/05/29 07:15:01;;;;;;;4.32;1.33;;;20.00;55.00;;;;;;6224353;28;20085;-75
2021/05/29 07:18:07;;;;;;;2.47;1.60;;;20.20;54.90;;;;;;6224756;28;20141;-76
2021/05/29 07:21:08;;;;;;;3.20;1.33;;;20.40;54.70;;;;;;6224244;28;20096;-75
2021/05/29 07:24:09;;;;;;;2.30;1.80;;;20.90;53.80;;;;;;6224740;28;20129;-75
2021/05/29 07:27:11;;;;;;;2.58;1.65;;;21.30;52.10;;;;;;6224073;28;20046;-75
2021/05/29 07:30:14;;;;;;;2.22;1.40;;;21.50;51.60;;;;;;6224565;28;20108;-75
2021/05/29 07:33:16;;;;;;;2.25;1.25;;;21.80;50.90;;;;;;6223976;28;20042;-75
2021/05/29 07:36:17;;;;;;;1.77;1.45;;;21.90;50.20;;;;;;6224242;28;20128;-75
2021/05/29 07:39:18;;;;;;;2.60;1.45;;;22.10;50.20;;;;;;6224168;28;20125;-75
2021/05/29 07:42:20;;;;;;;2.95;1.30;;;22.30;49.00;;;;;;6224482;28;20419;-76
2021/05/29 07:45:22;;;;;;;1.60;1.50;;;22.40;49.10;;;;;;6223910;28;20121;-76
2021/05/29 07:48:23;;;;;;;3.40;1.42;;;22.50;47.90;;;;;;6224104;28;20096;-76
2021/05/29 07:51:25;;;;;;;2.03;1.60;;;22.40;47.50;;;;;;6223824;28;20074;-76
2021/05/29 07:54:26;;;;;;;3.05;2.10;;;22.60;48.40;;;;;;6224105;28;20081;-76
2021/05/29 07:57:27;;;;;;;3.15;1.65;;;23.00;47.80;;;;;;6223697;28;20181;-76
2021/05/29 08:00:29;;;;;;;1.85;1.20;;;23.20;46.50;;;;;;6223244;28;20056;-76
2021/05/29 08:03:31;;;;;;;5.38;1.70;;;22.90;46.00;;;;;;6223655;28;20085;-77
2021/05/29 08:06:35;;;;;;;1.60;1.17;;;23.00;46.40;;;;;;6214392;28;20127;-76
2021/05/29 08:09:36;;;;;;;2.67;1.88;;;23.40;46.50;;;;;;6198988;28;20042;-76
2021/05/29 08:12:37;;;;;;;3.83;0.90;;;23.50;45.70;;;;;;6201125;28;20122;-76
2021/05/29 08:15:40;;;;;;;1.75;1.65;;;23.60;44.40;;;;;;6223637;28;20069;-77
2021/05/29 08:18:42;;;;;;;2.45;1.48;;;24.00;43.90;;;;;;6223494;28;20917;-77
2021/05/29 08:21:46;;;;;;;2.95;1.73;;;24.40;42.70;;;;;;6223378;28;20104;-76
2021/05/29 08:24:47;;;;;;;3.88;1.33;;;24.50;41.40;;;;;;6223326;28;20124;-76
2021/05/29 08:27:48;;;;;;;3.90;1.85;;;24.40;42.40;;;;;;6222867;28;20054;-76
2021/05/29 08:30:50;;;;;;;3.55;1.70;;;24.50;40.90;;;;;;6223813;28;20068;-76
2021/05/29 08:33:52;;;;;;;4.07;1.50;;;24.50;41.20;;;;;;6223633;28;20098;-76
2021/05/29 08:36:53;;;;;;;3.22;1.52;;;24.70;41.40;;;;;;6223367;28;20050;-76
2021/05/29 08:39:54;;;;;;;2.35;1.40;;;24.90;41.30;;;;;;6222711;28;20128;-76
2021/05/29 08:42:56;;;;;;;4.03;1.33;;;25.20;39.70;;;;;;6223589;28;20062;-75
2021/05/29 08:45:59;;;;;;;2.22;1.33;;;25.80;39.40;;;;;;6223153;28;20507;-76
2021/05/29 08:49:00;;;;;;;1.35;1.25;;;26.10;37.70;;;;;;6222745;28;20187;-76
2021/05/29 08:52:03;;;;;;;2.13;1.58;;;26.20;37.90;;;;;;6222515;28;20096;-76
2021/05/29 08:55:06;;;;;;;2.20;1.65;;;26.50;37.20;;;;;;6222897;28;20049;-76
2021/05/29 08:58:08;;;;;;;2.97;1.30;;;26.50;37.10;;;;;;6222602;28;20531;-76
2021/05/29 09:01:11;;;;;;;2.50;1.20;;;26.80;35.10;;;;;;6222572;28;20153;-75
2021/05/29 09:04:13;;;;;;;2.28;1.52;;;27.10;35.20;;;;;;6222361;28;20080;-76
2021/05/29 09:07:24;;;;;;;2.85;1.05;;;27.30;34.80;;;;;;6214863;28;20065;-76
2021/05/29 09:10:28;;;;;;;1.70;1.60;;;27.50;35.00;;;;;;6198768;28;20053;-76
2021/05/29 09:13:30;;;;;;;4.60;1.25;;;28.10;34.10;;;;;;6207048;28;20073;-76
2021/05/29 09:16:32;;;;;;;1.42;1.13;;;28.50;33.40;;;;;;6222710;28;20153;-76
2021/05/29 09:19:58;;;;;;;1.75;1.20;;;28.30;32.80;;;;;;6222195;28;20147;-76
2021/05/29 09:23:01;;;;;;;2.78;1.35;;;27.60;32.60;;;;;;6223595;28;20140;-76
2021/05/29 09:26:02;;;;;;;5.18;2.08;;;27.00;34.00;;;;;;6223435;28;20054;-76
2021/05/29 09:29:13;;;;;;;2.47;1.23;;;27.30;33.90;;;;;;6221833;28;20074;-76
2021/05/29 09:32:15;;;;;;;1.63;1.05;;;27.90;34.30;;;;;;6222666;28;20103;-76
2021/05/29 09:35:19;;;;;;;1.85;1.75;;;28.20;32.90;;;;;;6222116;28;20442;-76
2021/05/29 09:38:21;;;;;;;1.50;1.05;;;28.30;33.00;;;;;;6222782;28;20053;-76
2021/05/29 09:41:25;;;;;;;1.73;1.30;;;28.00;33.40;;;;;;6228243;28;20046;-76
2021/05/29 09:44:30;;;;;;;2.13;1.17;;;27.50;34.70;;;;;;6227846;28;20500;-76
2021/05/29 09:47:32;;;;;;;1.63;1.10;;;27.80;33.40;;;;;;6227550;28;20069;-77
2021/05/29 09:50:34;;;;;;;3.30;1.10;;;28.50;32.90;;;;;;6227451;28;20081;-77
2021/05/29 09:53:38;;;;;;;1.50;1.25;;;28.80;31.80;;;;;;6228886;28;20074;-76
2021/05/29 09:56:42;;;;;;;2.97;1.15;;;28.40;31.10;;;;;;6228590;28;20128;-76
2021/05/29 09:59:53;;;;;;;2.63;1.30;;;28.30;32.50;;;;;;6231246;28;20046;-76
2021/05/29 10:02:59;;;;;;;2.78;1.20;;;28.20;32.10;;;;;;6234512;28;20081;-76
2021/05/29 10:06:10;;;;;;;1.77;0.98;;;28.40;31.70;;;;;;6236898;28;20494;-76
2021/05/29 10:09:12;;;;;;;1.67;1.40;;;28.30;30.80;;;;;;6211067;28;20074;-76
2021/05/29 10:12:14;;;;;;;1.85;1.58;;;27.80;31.20;;;;;;6202005;28;20129;-77
2021/05/29 10:15:17;;;;;;;2.72;1.50;;;26.90;32.30;;;;;;6225323;28;20496;-76
2021/05/29 10:18:19;;;;;;;1.45;1.02;;;26.20;31.70;;;;;;6226660;28;20054;-75
2021/05/29 10:21:22;;;;;;;1.20;1.10;;;25.60;33.30;;;;;;6225750;28;20547;-76
2021/05/29 10:24:24;;;;;;;1.05;0.95;;;25.40;33.20;;;;;;6226068;28;20053;-76
2021/05/29 10:27:29;;;;;;;2.85;1.10;;;25.00;33.40;;;;;;6226215;28;20554;-75
2021/05/29 10:30:32;;;;;;;1.60;1.13;;;24.50;34.70;;;;;;6226023;28;20526;-76
2021/05/29 10:33:40;;;;;;;2.35;1.23;;;24.10;35.00;;;;;;6225782;28;20077;-76
2021/05/29 10:36:43;;;;;;;;;;;24.20;34.90;;;;;;6226444;28;20046;-75
2021/05/29 10:39:44;;;;;;;1.10;0.95;;;24.50;36.20;;;;;;6225022;28;19928;-76
2021/05/29 10:42:48;;;;;;;1.48;1.38;;;25.10;36.10;;;;;;6226412;28;20053;-75
2021/05/29 10:46:06;;;;;;;1.30;1.20;;;25.00;37.00;;;;;;6225301;28;20054;-75
2021/05/29 10:49:09;;;;;;;0.95;0.88;;;25.00;37.50;;;;;;6225092;28;20093;-75
2021/05/29 10:52:10;;;;;;;1.33;0.60;;;25.20;34.10;;;;;;6224149;28;20184;-76
2021/05/29 10:55:35;;;;;;;1.73;1.10;;;25.00;33.30;;;;;;6225114;28;20129;-75
2021/05/29 10:58:58;;;;;;;2.10;1.63;;;25.20;34.20;;;;;;6205791;28;20111;-76
2021/05/29 11:02:09;;;;;;;2.95;1.23;;;25.30;35.40;;;;;;6225525;28;20052;-75
2021/05/29 11:05:31;;;;;;;2.30;1.20;;;25.50;36.20;;;;;;6224887;28;20045;-76
2021/05/29 11:08:55;;;;;;;1.85;1.50;;;25.00;35.50;;;;;;6223400;28;20504;-74
2021/05/29 11:11:58;;;;;;;1.73;1.05;;;24.90;36.30;;;;;;6224760;28;20050;-73
2021/05/29 11:14:59;;;;;;;1.90;1.30;;;24.90;32.90;;;;;;6224783;28;20053;-73
2021/05/29 11:18:08;;;;;;;1.00;0.90;;;24.70;35.80;;;;;;6224879;28;20085;-73
2021/05/29 11:21:10;;;;;;;2.28;1.50;;;25.10;35.80;;;;;;6224170;28;20092;-74
2021/05/29 11:24:17;;;;;;;1.75;1.05;;;25.50;35.40;;;;;;6224056;28;20516;-74
2021/05/29 11:27:21;;;;;;;6.28;4.63;;;25.60;36.00;;;;;;6224646;28;20504;-74
2021/05/29 11:30:26;;;;;;;2.83;1.35;;;25.30;36.40;;;;;;6224683;28;20088;-74
2021/05/29 11:33:27;;;;;;;5.13;1.48;;;24.80;36.70;;;;;;6224096;28;20452;-74
2021/05/29 11:36:30;;;;;;;1.15;0.90;;;24.30;37.70;;;;;;6224416;28;20423;-73
2021/05/29 11:39:34;;;;;;;1.02;0.88;;;24.00;39.20;;;;;;6224145;28;20419;-73
2021/05/29 11:42:49;;;;;;;2.42;1.20;;;23.60;37.80;;;;;;6225589;28;20045;-74
2021/05/29 11:45:57;;;;;;;2.40;1.27;;;23.40;39.20;;;;;;6224342;28;20046;-76
2021/05/29 11:49:00;;;;;;;10.70;4.13;;;23.70;38.20;;;;;;6223998;28;20083;-75
2021/05/29 11:52:03;;;;;;;2.10;1.17;;;24.00;38.40;;;;;;6223975;28;20128;-76
2021/05/29 11:55:06;;;;;;;3.42;1.45;;;24.50;37.30;;;;;;6223524;28;20407;-73
2021/05/29 11:58:07;;;;;;;2.78;1.20;;;25.00;37.30;;;;;;6224000;28;20056;-74
2021/05/29 12:01:10;;;;;;;2.10;1.48;;;24.90;36.10;;;;;;6222876;28;20073;-74
2021/05/29 12:04:13;;;;;;;3.92;1.40;;;24.20;37.30;;;;;;6223175;28;20045;-73
2021/05/29 12:07:15;;;;;;;2.72;1.15;;;23.60;38.20;;;;;;6223438;28;20516;-74
2021/05/29 12:10:16;;;;;;;2.13;1.42;;;23.40;38.80;;;;;;6221534;28;20481;-74
2021/05/29 12:13:26;;;;;;;1.52;0.98;;;23.70;38.10;;;;;;6223404;28;20042;-75
2021/05/29 12:16:32;;;;;;;2.38;0.75;;;23.90;37.80;;;;;;6223269;28;20392;-76
2021/05/29 12:19:35;;;;;;;2.40;0.70;;;24.20;37.20;;;;;;6223763;28;20053;-74
2021/05/29 12:22:37;;;;;;;3.47;1.00;;;24.40;36.50;;;;;;6224138;28;20132;-76
2021/05/29 12:25:40;;;;;;;5.32;1.17;;;24.20;36.90;;;;;;6223244;28;20072;-76
2021/05/29 12:28:42;;;;;;;2.65;0.90;;;24.10;36.10;;;;;;6223321;28;20054;-76
2021/05/29 12:31:51;;;;;;;5.00;1.20;;;23.80;36.50;;;;;;6223066;28;20077;-76
2021/05/29 12:34:53;;;;;;;0.93;0.60;;;23.50;37.30;;;;;;6222728;28;20077;-76
2021/05/29 12:37:55;;;;;;;0.75;0.60;;;23.50;36.90;;;;;;6223716;28;20132;-76
2021/05/29 12:40:59;;;;;;;2.05;0.80;;;23.80;37.10;;;;;;6222636;28;20064;-77
2021/05/29 12:44:04;;;;;;;0.95;0.55;;;24.30;35.50;;;;;;6223217;28;20056;-76
2021/05/29 12:47:16;;;;;;;5.53;0.70;;;24.80;34.40;;;;;;6222546;28;20405;-76
2021/05/29 12:50:18;;;;;;;0.70;0.60;;;25.20;33.80;;;;;;6223179;28;20132;-76
2021/05/29 12:53:21;;;;;;;1.15;0.63;;;25.30;33.80;;;;;;6222670;28;20060;-75
2021/05/29 12:56:24;;;;;;;1.50;0.73;;;25.30;33.90;;;;;;6222253;28;20419;-74
2021/05/29 12:59:27;;;;;;;0.75;0.60;;;25.40;33.30;;;;;;6221872;28;20416;-75
2021/05/29 13:02:40;;;;;;;1.83;0.75;;;25.50;33.40;;;;;;6222357;28;20474;-75
2021/05/29 13:09:20;;;;;;;0.50;0.50;;;25.90;32.90;;;;;;6221166;28;20069;-75
2021/05/29 13:12:21;;;;;;;0.57;0.45;;;25.70;31.90;;;;;;6218058;28;20050;-75
2021/05/29 13:15:23;;;;;;;0.95;0.80;;;25.40;31.80;;;;;;6221317;28;20478;-74
2021/05/29 13:18:25;;;;;;;1.13;0.55;;;25.20;33.10;;;;;;6222459;28;20049;-75
2021/05/29 13:21:26;;;;;;;1.13;0.70;;;25.30;32.40;;;;;;6221904;28;20132;-75
2021/05/29 13:24:46;;;;;;;0.52;0.52;;;25.50;32.10;;;;;;6222055;28;20085;-75
2021/05/29 13:27:51;;;;;;;0.93;0.50;;;25.80;32.30;;;;;;6223039;28;20045;-75
2021/05/29 13:30:52;;;;;;;2.03;0.60;;;26.00;31.10;;;;;;6221919;28;20050;-75
2021/05/29 13:33:58;;;;;;;1.70;0.35;;;25.50;31.70;;;;;;6222382;28;20144;-74
2021/05/29 13:36:59;;;;;;;2.63;0.43;;;25.40;32.10;;;;;;6221964;28;20056;-75
2021/05/29 13:40:03;;;;;;;0.68;0.52;;;25.70;31.80;;;;;;6222351;28;20077;-75
2021/05/29 13:43:08;;;;;;;1.30;0.63;;;26.10;31.40;;;;;;6222408;28;20057;-75
2021/05/29 13:46:10;;;;;;;3.70;0.88;;;26.30;31.20;;;;;;6222973;28;20052;-75
2021/05/29 13:49:11;;;;;;;1.17;1.05;;;26.50;30.80;;;;;;6221726;28;20531;-75
2021/05/29 13:52:13;;;;;;;0.77;0.65;;;26.60;30.70;;;;;;6222087;28;20049;-75
2021/05/29 13:55:17;;;;;;;2.92;0.60;;;26.50;30.40;;;;;;6222522;28;20057;-75
2021/05/29 13:58:18;;;;;;;2.00;0.60;;;26.40;30.60;;;;;;6221434;28;20103;-75
2021/05/29 14:01:20;;;;;;;2.10;0.40;;;26.00;30.30;;;;;;6221181;28;20577;-75
2021/05/29 14:04:21;;;;;;;1.58;0.52;;;25.80;31.00;;;;;;6221163;28;20069;-75
2021/05/29 14:07:23;;;;;;;2.42;0.65;;;25.80;31.40;;;;;;6221888;28;20137;-75
2021/05/29 14:10:27;;;;;;;2.25;0.47;;;25.70;31.00;;;;;;6221254;28;20137;-75
2021/05/29 14:13:28;;;;;;;2.58;0.45;;;25.60;31.30;;;;;;6220364;28;20447;-75
2021/05/29 14:16:30;;;;;;;0.73;0.50;;;25.80;30.80;;;;;;6221537;28;20070;-75
2021/05/29 14:19:31;;;;;;;1.30;0.90;;;25.70;30.40;;;;;;6221005;28;20415;-75
2021/05/29 14:22:33;;;;;;;2.22;0.40;;;25.50;31.20;;;;;;6222122;28;20135;-75
2021/05/29 14:25:35;;;;;;;0.60;0.60;;;25.60;31.80;;;;;;6232045;28;20072;-75
2021/05/29 14:28:36;;;;;;;1.15;0.98;;;25.70;31.00;;;;;;6225809;28;20547;-76
2021/05/29 14:31:38;;;;;;;0.93;0.70;;;25.70;31.00;;;;;;6225455;28;20133;-76
2021/05/29 14:34:39;;;;;;;1.13;0.60;;;25.80;31.80;;;;;;6226163;28;20496;-76
2021/05/29 14:37:41;;;;;;;0.70;0.70;;;26.00;31.50;;;;;;6225668;28;20065;-75
2021/05/29 14:40:43;;;;;;;0.60;0.60;;;26.00;32.00;;;;;;6225366;28;20060;-76
2021/05/29 14:43:45;;;;;;;0.70;0.47;;;26.00;30.70;;;;;;6226110;28;20045;-76
2021/05/29 14:46:46;;;;;;;0.85;0.60;;;26.20;30.90;;;;;;6225790;28;20132;-76
2021/05/29 14:49:48;;;;;;;1.02;0.50;;;26.40;31.60;;;;;;6225225;28;20576;-76
2021/05/29 14:52:49;;;;;;;2.47;0.45;;;26.00;30.80;;;;;;6225319;28;20125;-75
2021/05/29 14:55:51;;;;;;;1.23;0.93;;;25.90;31.90;;;;;;6225400;28;20076;-75
2021/05/29 14:58:53;;;;;;;3.60;0.70;;;26.00;30.40;;;;;;6224537;28;20531;-75
2021/05/29 15:01:56;;;;;;;0.63;0.63;;;26.20;30.30;;;;;;6225731;28;20567;-75
2021/05/29 15:04:58;;;;;;;0.52;0.40;;;26.40;30.20;;;;;;6224875;28;20046;-75
2021/05/29 15:08:00;;;;;;;0.75;0.60;;;26.30;30.40;;;;;;6225207;28;20054;-76
2021/05/29 15:11:03;;;;;;;2.55;0.80;;;26.20;29.90;;;;;;6224568;28;20077;-75
2021/05/29 15:14:04;;;;;;;2.38;0.73;;;26.20;29.90;;;;;;6223784;28;20080;-76
2021/05/29 15:17:05;;;;;;;3.28;0.50;;;26.20;29.80;;;;;;6224981;28;20085;-76
2021/05/29 15:20:09;;;;;;;0.82;0.52;;;26.30;29.40;;;;;;6224348;28;20129;-76
2021/05/29 15:23:11;;;;;;;0.63;0.60;;;26.30;29.40;;;;;;6225039;28;20185;-75
2021/05/29 15:26:13;;;;;;;0.68;0.40;;;26.10;29.50;;;;;;6225263;28;20050;-75
2021/05/29 15:29:15;;;;;;;0.73;0.47;;;25.50;29.80;;;;;;6224608;28;20080;-75
2021/05/29 15:32:16;;;;;;;0.57;0.38;;;25.30;29.30;;;;;;6224422;28;20049;-76
2021/05/29 15:35:17;;;;;;;0.75;0.60;;;25.10;30.10;;;;;;6225064;28;20049;-76
2021/05/29 15:38:19;;;;;;;4.15;0.85;;;25.20;29.90;;;;;;6226807;28;20061;-75
2021/05/29 15:41:21;;;;;;;0.88;0.40;;;25.10;29.80;;;;;;6223927;28;20133;-75
2021/05/29 15:44:23;;;;;;;0.60;0.60;;;25.00;30.00;;;;;;6224075;28;20474;-74
2021/05/29 15:47:24;;;;;;;3.13;0.40;;;25.20;30.00;;;;;;6223953;28;20073;-75
2021/05/29 15:50:26;;;;;;;4.53;0.43;;;25.30;30.90;;;;;;6224439;28;20114;-74
2021/05/29 15:53:27;;;;;;;0.50;0.40;;;25.40;30.20;;;;;;6223635;28;20137;-75
2021/05/29 15:56:30;;;;;;;1.00;0.57;;;25.30;29.90;;;;;;6224120;28;20081;-76
2021/05/29 15:59:31;;;;;;;0.73;0.50;;;25.40;30.00;;;;;;6223726;28;20048;-74
2021/05/29 16:02:32;;;;;;;0.95;0.57;;;25.70;29.80;;;;;;6223890;28;20464;-74
2021/05/29 16:05:33;;;;;;;0.40;0.28;;;25.80;29.90;;;;;;6223726;28;20154;-74